Ravenswood, Illinois
Current Conditions -  °F | °C
As of 9:51 AM on Tuesday 21 Oct 2014 (Local Time) from KORD Reporting Station
Broken Clouds Broken Clouds  
Wind Chill:   Ceiling: 4300
Heat Index:   Visibility: 10mi
Dew Point:   Wind: 13mph
Humidity: 71%   Direction: 360°N
Pressure: 30.15"   Gusts: NA
Location:  41.9735°N, 87.7018°W
Report Text: KORD 211451Z 36011KT 10SM FEW022 BKN043 09/04 A3015 RMK AO2 SLP212 T00940044 51019
Loading
Personal Weather Stations






























Interactive Weather Map
Tropical Storm Tracking
New forecast layout! Learn more

10-Day Weather Forecast

Advertisements
Track Severe Weather on mobile